sensor_id;sensor_type;location;lat;lon;timestamp;pressure;altitude;pressure_sealevel;temperature;humidity
804;BME280;25687;49.976;8.240;2022-08-19T00:02:09;99682.09;;;21.23;82.07
804;BME280;25687;49.976;8.240;2022-08-19T00:04:35;99694.50;;;21.29;81.63
804;BME280;25687;49.976;8.240;2022-08-19T00:07:02;99699.25;;;21.34;81.31
804;BME280;25687;49.976;8.240;2022-08-19T00:09:28;99705.47;;;21.41;81.16
804;BME280;25687;49.976;8.240;2022-08-19T00:11:55;99707.09;;;21.42;80.71
804;BME280;25687;49.976;8.240;2022-08-19T00:14:21;99708.72;;;21.43;80.91
804;BME280;25687;49.976;8.240;2022-08-19T00:16:48;99703.19;;;21.38;81.11
804;BME280;25687;49.976;8.240;2022-08-19T00:19:14;99698.75;;;21.47;80.33
804;BME280;25687;49.976;8.240;2022-08-19T00:21:40;99699.72;;;21.45;80.46
804;BME280;25687;49.976;8.240;2022-08-19T00:24:12;99699.41;;;21.40;80.79
804;BME280;25687;49.976;8.240;2022-08-19T00:26:38;99702.03;;;21.40;80.34
804;BME280;25687;49.976;8.240;2022-08-19T00:29:05;99682.91;;;21.23;81.34
804;BME280;25687;49.976;8.240;2022-08-19T00:31:31;99692.56;;;21.31;81.20
804;BME280;25687;49.976;8.240;2022-08-19T00:33:56;99685.84;;;21.20;81.40
804;BME280;25687;49.976;8.240;2022-08-19T00:36:22;99689.59;;;21.26;81.52
804;BME280;25687;49.976;8.240;2022-08-19T00:38:47;99686.19;;;21.25;81.73
804;BME280;25687;49.976;8.240;2022-08-19T00:41:14;99687.16;;;21.24;81.53
804;BME280;25687;49.976;8.240;2022-08-19T00:43:40;99687.81;;;21.35;81.23
804;BME280;25687;49.976;8.240;2022-08-19T00:46:06;99686.84;;;21.27;81.12
804;BME280;25687;49.976;8.240;2022-08-19T00:48:33;99686.50;;;21.39;80.47
804;BME280;25687;49.976;8.240;2022-08-19T00:50:59;99689.78;;;21.33;80.79
804;BME280;25687;49.976;8.240;2022-08-19T00:53:29;99681.09;;;21.32;80.79
804;BME280;25687;49.976;8.240;2022-08-19T00:55:58;99671.97;;;21.36;80.84
804;BME280;25687;49.976;8.240;2022-08-19T00:58:27;99670.66;;;21.24;81.49
804;BME280;25687;49.976;8.240;2022-08-19T01:00:55;99663.63;;;21.08;82.63
804;BME280;25687;49.976;8.240;2022-08-19T01:03:21;99659.84;;;21.02;82.93
804;BME280;25687;49.976;8.240;2022-08-19T01:05:47;99646.94;;;21.01;83.40
804;BME280;25687;49.976;8.240;2022-08-19T01:08:14;99640.88;;;20.92;84.00
804;BME280;25687;49.976;8.240;2022-08-19T01:10:43;99641.69;;;20.92;84.41
804;BME280;25687;49.976;8.240;2022-08-19T01:13:10;99645.81;;;20.95;84.40
804;BME280;25687;49.976;8.240;2022-08-19T01:15:44;99643.69;;;20.90;83.95
804;BME280;25687;49.976;8.240;2022-08-19T01:18:13;99639.75;;;21.03;83.64
804;BME280;25687;49.976;8.240;2022-08-19T01:20:41;99644.97;;;20.94;84.21
804;BME280;25687;49.976;8.240;2022-08-19T01:23:07;99635.81;;;20.99;83.43
804;BME280;25687;49.976;8.240;2022-08-19T01:25:42;99629.94;;;21.05;83.30
804;BME280;25687;49.976;8.240;2022-08-19T01:28:15;99632.88;;;20.93;83.98
804;BME280;25687;49.976;8.240;2022-08-19T01:30:41;99634.53;;;21.03;83.84
804;BME280;25687;49.976;8.240;2022-08-19T01:33:06;99631.75;;;21.04;83.67
804;BME280;25687;49.976;8.240;2022-08-19T01:35:32;99635.66;;;21.08;83.33
804;BME280;25687;49.976;8.240;2022-08-19T01:38:03;99634.53;;;20.94;83.85
804;BME280;25687;49.976;8.240;2022-08-19T01:40:33;99638.44;;;20.99;83.76
804;BME280;25687;49.976;8.240;2022-08-19T01:43:00;99639.28;;;20.99;83.85
804;BME280;25687;49.976;8.240;2022-08-19T01:45:28;99650.03;;;21.04;83.90
804;BME280;25687;49.976;8.240;2022-08-19T01:47:54;99658.22;;;21.01;83.91
804;BME280;25687;49.976;8.240;2022-08-19T01:50:20;99666.41;;;21.06;84.35
804;BME280;25687;49.976;8.240;2022-08-19T01:52:45;99664.59;;;21.07;84.42
804;BME280;25687;49.976;8.240;2022-08-19T01:55:14;99659.38;;;21.07;84.18
804;BME280;25687;49.976;8.240;2022-08-19T01:57:43;99651.84;;;21.12;83.82
804;BME280;25687;49.976;8.240;2022-08-19T02:00:12;99648.25;;;21.13;84.14
804;BME280;25687;49.976;8.240;2022-08-19T02:02:40;99645.31;;;21.00;84.78
804;BME280;25687;49.976;8.240;2022-08-19T02:05:06;99654.28;;;20.97;85.16
804;BME280;25687;49.976;8.240;2022-08-19T02:07:34;99658.19;;;20.85;85.76
804;BME280;25687;49.976;8.240;2022-08-19T02:10:04;99660.63;;;20.86;85.78
804;BME280;25687;49.976;8.240;2022-08-19T02:12:30;99666.06;;;20.93;85.67
804;BME280;25687;49.976;8.240;2022-08-19T02:14:55;99655.44;;;20.94;85.65
804;BME280;25687;49.976;8.240;2022-08-19T02:17:21;99657.41;;;21.01;84.83
804;BME280;25687;49.976;8.240;2022-08-19T02:19:46;99663.94;;;20.96;85.01
804;BME280;25687;49.976;8.240;2022-08-19T02:22:12;99667.69;;;20.94;85.26
804;BME280;25687;49.976;8.240;2022-08-19T02:24:38;99666.88;;;20.93;85.77
804;BME280;25687;49.976;8.240;2022-08-19T02:27:04;99663.78;;;20.98;84.63
804;BME280;25687;49.976;8.240;2022-08-19T02:29:29;99661.47;;;21.03;84.44
804;BME280;25687;49.976;8.240;2022-08-19T02:31:55;99663.78;;;20.98;84.66
804;BME280;25687;49.976;8.240;2022-08-19T02:34:20;99665.88;;;20.78;85.29
804;BME280;25687;49.976;8.240;2022-08-19T02:36:45;99672.44;;;20.90;84.89
804;BME280;25687;49.976;8.240;2022-08-19T02:39:11;99670.78;;;20.89;85.53
804;BME280;25687;49.976;8.240;2022-08-19T02:41:36;99676.16;;;20.79;85.61
804;BME280;25687;49.976;8.240;2022-08-19T02:44:03;99676.00;;;20.73;86.44
804;BME280;25687;49.976;8.240;2022-08-19T02:46:31;99671.84;;;20.62;86.69
804;BME280;25687;49.976;8.240;2022-08-19T02:49:02;99667.94;;;20.58;86.75
804;BME280;25687;49.976;8.240;2022-08-19T02:51:40;99672.97;;;20.51;87.02
804;BME280;25687;49.976;8.240;2022-08-19T02:54:07;99670.19;;;20.53;87.15
804;BME280;25687;49.976;8.240;2022-08-19T02:56:38;99676.53;;;20.42;88.06
804;BME280;25687;49.976;8.240;2022-08-19T02:59:04;99680.41;;;20.29;89.12
804;BME280;25687;49.976;8.240;2022-08-19T03:01:36;99680.75;;;20.35;88.93
804;BME280;25687;49.976;8.240;2022-08-19T03:04:04;99683.47;;;20.25;89.23
804;BME280;25687;49.976;8.240;2022-08-19T03:06:30;99681.31;;;20.12;90.19
804;BME280;25687;49.976;8.240;2022-08-19T03:08:56;99669.09;;;20.21;89.98
804;BME280;25687;49.976;8.240;2022-08-19T03:11:27;99674.47;;;20.19;89.96
804;BME280;25687;49.976;8.240;2022-08-19T03:13:52;99670.09;;;20.20;90.48
804;BME280;25687;49.976;8.240;2022-08-19T03:16:21;99680.69;;;20.18;90.39
804;BME280;25687;49.976;8.240;2022-08-19T03:18:46;99677.28;;;20.26;90.30
804;BME280;25687;49.976;8.240;2022-08-19T03:21:23;99679.03;;;20.17;90.38
804;BME280;25687;49.976;8.240;2022-08-19T03:23:49;99680.38;;;20.21;90.97
804;BME280;25687;49.976;8.240;2022-08-19T03:26:16;99674.97;;;20.14;90.63
804;BME280;25687;49.976;8.240;2022-08-19T03:28:42;99676.38;;;20.09;91.47
804;BME280;25687;49.976;8.240;2022-08-19T03:31:11;99676.78;;;19.88;92.62
804;BME280;25687;49.976;8.240;2022-08-19T03:33:37;99681.81;;;19.89;93.55
804;BME280;25687;49.976;8.240;2022-08-19T03:38:31;99672.50;;;19.87;93.60
804;BME280;25687;49.976;8.240;2022-08-19T03:40:57;99679.28;;;19.79;94.20
804;BME280;25687;49.976;8.240;2022-08-19T03:43:23;99678.16;;;19.82;94.59
804;BME280;25687;49.976;8.240;2022-08-19T03:45:48;99684.66;;;19.78;95.17
804;BME280;25687;49.976;8.240;2022-08-19T03:48:14;99682.91;;;19.78;95.13
804;BME280;25687;49.976;8.240;2022-08-19T03:50:41;99678.59;;;19.69;95.74
804;BME280;25687;49.976;8.240;2022-08-19T03:53:07;99676.78;;;19.70;96.04
804;BME280;25687;49.976;8.240;2022-08-19T03:55:34;99691.81;;;19.76;96.00
804;BME280;25687;49.976;8.240;2022-08-19T03:58:03;99690.66;;;19.70;96.20
804;BME280;25687;49.976;8.240;2022-08-19T04:00:28;99691.78;;;19.67;96.57
804;BME280;25687;49.976;8.240;2022-08-19T04:02:54;99690.81;;;19.68;96.56
804;BME280;25687;49.976;8.240;2022-08-19T04:05:19;99689.47;;;19.64;97.36
804;BME280;25687;49.976;8.240;2022-08-19T04:07:45;99692.06;;;19.64;97.84
804;BME280;25687;49.976;8.240;2022-08-19T04:10:10;99690.44;;;19.63;97.53
804;BME280;25687;49.976;8.240;2022-08-19T04:12:36;99698.22;;;19.55;98.34
804;BME280;25687;49.976;8.240;2022-08-19T04:15:02;99691.59;;;19.43;99.79
804;BME280;25687;49.976;8.240;2022-08-19T04:17:27;99699.00;;;19.47;99.65
804;BME280;25687;49.976;8.240;2022-08-19T04:19:52;99698.22;;;19.55;99.68
804;BME280;25687;49.976;8.240;2022-08-19T04:22:18;99705.00;;;19.48;99.60
804;BME280;25687;49.976;8.240;2022-08-19T04:24:43;99702.50;;;19.38;100.00
804;BME280;25687;49.976;8.240;2022-08-19T04:27:08;99706.22;;;19.35;100.00
804;BME280;25687;49.976;8.240;2022-08-19T04:29:34;99702.19;;;19.41;100.00
804;BME280;25687;49.976;8.240;2022-08-19T04:31:59;99698.16;;;19.47;100.00
804;BME280;25687;49.976;8.240;2022-08-19T04:34:26;99694.06;;;19.44;100.00
804;BME280;25687;49.976;8.240;2022-08-19T04:36:54;99698.47;;;19.44;100.00
804;BME280;25687;49.976;8.240;2022-08-19T04:39:23;99687.88;;;19.45;100.00
804;BME280;25687;49.976;8.240;2022-08-19T04:42:09;99695.47;;;19.39;100.00
804;BME280;25687;49.976;8.240;2022-08-19T04:44:54;99694.22;;;19.43;100.00
804;BME280;25687;49.976;8.240;2022-08-19T04:47:19;99694.66;;;19.38;100.00
804;BME280;25687;49.976;8.240;2022-08-19T04:49:44;99701.63;;;19.56;100.00
804;BME280;25687;49.976;8.240;2022-08-19T04:52:09;99695.63;;;19.55;100.00
804;BME280;25687;49.976;8.240;2022-08-19T04:54:35;99694.25;;;19.51;100.00
804;BME280;25687;49.976;8.240;2022-08-19T04:57:00;99699.19;;;19.54;99.78
804;BME280;25687;49.976;8.240;2022-08-19T04:59:26;99704.59;;;19.61;99.19
804;BME280;25687;49.976;8.240;2022-08-19T05:01:51;99710.56;;;19.71;98.33
804;BME280;25687;49.976;8.240;2022-08-19T05:04:19;99715.41;;;19.84;97.29
804;BME280;25687;49.976;8.240;2022-08-19T05:06:47;99717.56;;;19.71;97.26
804;BME280;25687;49.976;8.240;2022-08-19T05:09:14;99718.69;;;19.86;97.01
804;BME280;25687;49.976;8.240;2022-08-19T05:11:40;99725.91;;;19.92;96.76
804;BME280;25687;49.976;8.240;2022-08-19T05:14:06;99718.47;;;20.06;95.45
804;BME280;25687;49.976;8.240;2022-08-19T05:16:32;99722.88;;;20.05;94.78
804;BME280;25687;49.976;8.240;2022-08-19T05:18:58;99726.78;;;20.01;95.01
804;BME280;25687;49.976;8.240;2022-08-19T05:21:42;99730.41;;;20.08;95.32
804;BME280;25687;49.976;8.240;2022-08-19T05:24:28;99725.25;;;20.25;94.38
804;BME280;25687;49.976;8.240;2022-08-19T05:26:55;99724.13;;;20.27;93.32
804;BME280;25687;49.976;8.240;2022-08-19T05:29:26;99724.97;;;20.36;93.12
804;BME280;25687;49.976;8.240;2022-08-19T05:31:52;99719.47;;;20.47;92.03
804;BME280;25687;49.976;8.240;2022-08-19T05:34:19;99724.63;;;20.66;90.96
804;BME280;25687;49.976;8.240;2022-08-19T05:36:47;99725.78;;;20.71;89.79
804;BME280;25687;49.976;8.240;2022-08-19T05:39:17;99721.06;;;20.75;89.87
804;BME280;25687;49.976;8.240;2022-08-19T05:41:44;99725.84;;;20.88;89.12
804;BME280;25687;49.976;8.240;2022-08-19T05:44:10;99728.97;;;21.00;87.99
804;BME280;25687;49.976;8.240;2022-08-19T05:46:37;99747.63;;;21.13;87.60
804;BME280;25687;49.976;8.240;2022-08-19T05:49:04;99734.91;;;21.43;85.64
804;BME280;25687;49.976;8.240;2022-08-19T05:51:30;99731.16;;;21.70;83.73
804;BME280;25687;49.976;8.240;2022-08-19T05:53:57;99721.34;;;21.81;82.95
804;BME280;25687;49.976;8.240;2022-08-19T05:56:23;99720.69;;;21.70;82.90
804;BME280;25687;49.976;8.240;2022-08-19T05:58:48;99727.56;;;21.63;82.78
804;BME280;25687;49.976;8.240;2022-08-19T06:01:16;99723.31;;;21.62;82.77
804;BME280;25687;49.976;8.240;2022-08-19T06:03:43;99744.56;;;21.92;82.39
804;BME280;25687;49.976;8.240;2022-08-19T06:06:09;99755.13;;;22.15;80.55
804;BME280;25687;49.976;8.240;2022-08-19T06:08:36;99759.34;;;22.33;79.39
804;BME280;25687;49.976;8.240;2022-08-19T06:11:18;99760.88;;;22.11;79.12
804;BME280;25687;49.976;8.240;2022-08-19T06:13:45;99757.91;;;22.14;79.58
804;BME280;25687;49.976;8.240;2022-08-19T06:16:13;99759.56;;;22.06;79.95
804;BME280;25687;49.976;8.240;2022-08-19T06:18:38;99765.16;;;22.12;80.53
804;BME280;25687;49.976;8.240;2022-08-19T06:21:04;99771.50;;;22.09;81.64
804;BME280;25687;49.976;8.240;2022-08-19T06:23:29;99781.31;;;22.15;81.07
804;BME280;25687;49.976;8.240;2022-08-19T06:25:55;99782.97;;;22.16;80.04
804;BME280;25687;49.976;8.240;2022-08-19T06:28:21;99781.94;;;22.42;78.14
804;BME280;25687;49.976;8.240;2022-08-19T06:30:48;99793.25;;;22.43;77.99
804;BME280;25687;49.976;8.240;2022-08-19T06:33:14;99789.13;;;22.48;77.56
804;BME280;25687;49.976;8.240;2022-08-19T06:35:41;99788.44;;;22.63;77.06
804;BME280;25687;49.976;8.240;2022-08-19T06:38:06;99800.19;;;22.67;76.19
804;BME280;25687;49.976;8.240;2022-08-19T06:40:31;99797.59;;;22.67;76.65
804;BME280;25687;49.976;8.240;2022-08-19T06:42:56;99806.41;;;22.74;76.06
804;BME280;25687;49.976;8.240;2022-08-19T06:45:24;99806.59;;;23.04;74.72
804;BME280;25687;49.976;8.240;2022-08-19T06:47:49;99815.22;;;23.13;73.91
804;BME280;25687;49.976;8.240;2022-08-19T06:50:19;99799.94;;;23.48;72.17
804;BME280;25687;49.976;8.240;2022-08-19T06:52:44;99804.38;;;24.09;68.41
804;BME280;25687;49.976;8.240;2022-08-19T06:55:09;99802.59;;;24.54;65.16
804;BME280;25687;49.976;8.240;2022-08-19T06:57:35;99810.53;;;25.27;61.72
804;BME280;25687;49.976;8.240;2022-08-19T07:00:00;99810.16;;;26.24;56.87
804;BME280;25687;49.976;8.240;2022-08-19T07:02:26;99806.94;;;26.29;57.20
804;BME280;25687;49.976;8.240;2022-08-19T07:04:52;99813.13;;;26.49;55.77
804;BME280;25687;49.976;8.240;2022-08-19T07:07:19;99813.22;;;27.18;52.93
804;BME280;25687;49.976;8.240;2022-08-19T07:09:45;99807.59;;;27.48;51.24
804;BME280;25687;49.976;8.240;2022-08-19T07:12:12;99808.41;;;27.62;50.25
804;BME280;25687;49.976;8.240;2022-08-19T07:14:40;99805.97;;;27.74;50.16
804;BME280;25687;49.976;8.240;2022-08-19T07:17:08;99813.75;;;28.54;47.45
804;BME280;25687;49.976;8.240;2022-08-19T07:19:35;99819.00;;;29.52;45.08
804;BME280;25687;49.976;8.240;2022-08-19T07:22:03;99829.91;;;29.37;44.90
804;BME280;25687;49.976;8.240;2022-08-19T07:24:30;99821.59;;;28.36;46.68
804;BME280;25687;49.976;8.240;2022-08-19T07:26:57;99819.63;;;28.76;46.47
804;BME280;25687;49.976;8.240;2022-08-19T07:29:26;99817.91;;;29.34;44.69
804;BME280;25687;49.976;8.240;2022-08-19T07:31:53;99809.19;;;28.88;45.56
804;BME280;25687;49.976;8.240;2022-08-19T07:34:22;99809.13;;;29.02;45.05
804;BME280;25687;49.976;8.240;2022-08-19T07:36:49;99811.34;;;29.69;43.44
804;BME280;25687;49.976;8.240;2022-08-19T07:39:40;99815.94;;;29.16;44.38
804;BME280;25687;49.976;8.240;2022-08-19T07:42:09;99810.00;;;29.21;44.14
804;BME280;25687;49.976;8.240;2022-08-19T07:44:36;99810.81;;;30.04;42.18
804;BME280;25687;49.976;8.240;2022-08-19T07:47:03;99806.94;;;30.25;41.22
804;BME280;25687;49.976;8.240;2022-08-19T07:49:29;99810.94;;;30.34;41.36
804;BME280;25687;49.976;8.240;2022-08-19T07:52:02;99808.78;;;30.80;40.06
804;BME280;25687;49.976;8.240;2022-08-19T07:54:30;99814.38;;;30.16;40.59
804;BME280;25687;49.976;8.240;2022-08-19T07:56:57;99809.16;;;29.27;42.93
804;BME280;25687;49.976;8.240;2022-08-19T07:59:24;99806.31;;;28.90;44.72
804;BME280;25687;49.976;8.240;2022-08-19T08:01:50;99804.53;;;27.98;47.37
804;BME280;25687;49.976;8.240;2022-08-19T08:04:17;99806.78;;;27.74;47.93
804;BME280;25687;49.976;8.240;2022-08-19T08:07:01;99806.78;;;27.67;48.33
804;BME280;25687;49.976;8.240;2022-08-19T08:09:45;99811.03;;;28.22;46.84
804;BME280;25687;49.976;8.240;2022-08-19T08:12:23;99819.59;;;28.11;46.29
804;BME280;25687;49.976;8.240;2022-08-19T08:14:53;99814.81;;;28.46;45.25
804;BME280;25687;49.976;8.240;2022-08-19T08:17:21;99819.44;;;28.71;44.84
804;BME280;25687;49.976;8.240;2022-08-19T08:19:47;99813.56;;;28.56;45.02
804;BME280;25687;49.976;8.240;2022-08-19T08:22:15;99828.69;;;28.35;45.26
804;BME280;25687;49.976;8.240;2022-08-19T08:25:21;99818.72;;;28.30;46.35
804;BME280;25687;49.976;8.240;2022-08-19T08:27:48;99824.72;;;28.64;44.70
804;BME280;25687;49.976;8.240;2022-08-19T08:30:21;99833.00;;;28.88;43.71
804;BME280;25687;49.976;8.240;2022-08-19T08:32:47;99837.63;;;28.34;45.22
804;BME280;25687;49.976;8.240;2022-08-19T08:35:16;99826.50;;;27.58;46.93
804;BME280;25687;49.976;8.240;2022-08-19T08:37:43;99828.16;;;26.97;49.56
804;BME280;25687;49.976;8.240;2022-08-19T08:42:58;99840.19;;;27.13;49.56
804;BME280;25687;49.976;8.240;2022-08-19T08:45:28;99844.16;;;27.51;47.27
804;BME280;25687;49.976;8.240;2022-08-19T08:47:57;99841.78;;;27.08;48.06
804;BME280;25687;49.976;8.240;2022-08-19T08:50:39;99850.88;;;27.40;47.46
804;BME280;25687;49.976;8.240;2022-08-19T08:53:07;99850.47;;;27.90;45.50
804;BME280;25687;49.976;8.240;2022-08-19T08:55:33;99851.84;;;28.46;43.99
804;BME280;25687;49.976;8.240;2022-08-19T08:58:43;99858.78;;;28.41;44.71
804;BME280;25687;49.976;8.240;2022-08-19T09:01:11;99858.31;;;29.16;42.61
804;BME280;25687;49.976;8.240;2022-08-19T09:03:38;99854.13;;;29.98;40.90
804;BME280;25687;49.976;8.240;2022-08-19T09:06:22;99846.25;;;30.53;39.07
804;BME280;25687;49.976;8.240;2022-08-19T09:09:49;99857.72;;;30.29;39.17
804;BME280;25687;49.976;8.240;2022-08-19T09:14:37;99858.19;;;32.08;35.70
804;BME280;25687;49.976;8.240;2022-08-19T09:17:08;99855.53;;;30.44;38.11
804;BME280;25687;49.976;8.240;2022-08-19T09:19:36;99857.88;;;30.71;38.00
804;BME280;25687;49.976;8.240;2022-08-19T09:22:11;99867.16;;;29.99;38.86
804;BME280;25687;49.976;8.240;2022-08-19T09:24:36;99854.34;;;29.00;41.29
804;BME280;25687;49.976;8.240;2022-08-19T09:27:03;99842.91;;;29.06;40.64
804;BME280;25687;49.976;8.240;2022-08-19T09:29:29;99844.53;;;30.78;36.76
804;BME280;25687;49.976;8.240;2022-08-19T09:31:55;99837.56;;;31.14;36.20
804;BME280;25687;49.976;8.240;2022-08-19T09:34:20;99831.31;;;31.62;36.26
804;BME280;25687;49.976;8.240;2022-08-19T09:36:46;99830.78;;;31.30;36.16
804;BME280;25687;49.976;8.240;2022-08-19T09:39:11;99824.91;;;30.41;37.83
804;BME280;25687;49.976;8.240;2022-08-19T09:41:36;99829.56;;;30.83;37.61
804;BME280;25687;49.976;8.240;2022-08-19T09:44:02;99835.34;;;29.49;39.74
804;BME280;25687;49.976;8.240;2022-08-19T09:46:29;99834.03;;;29.33;40.78
804;BME280;25687;49.976;8.240;2022-08-19T09:48:59;99824.72;;;30.62;38.38
804;BME280;25687;49.976;8.240;2022-08-19T09:51:26;99819.84;;;31.62;36.16
804;BME280;25687;49.976;8.240;2022-08-19T09:53:54;99821.19;;;32.07;35.21
804;BME280;25687;49.976;8.240;2022-08-19T09:56:21;99816.41;;;32.09;33.49
804;BME280;25687;49.976;8.240;2022-08-19T09:58:47;99817.59;;;31.77;34.75
804;BME280;25687;49.976;8.240;2022-08-19T10:01:21;99808.31;;;32.39;33.29
804;BME280;25687;49.976;8.240;2022-08-19T10:03:49;99821.91;;;32.95;31.19
804;BME280;25687;49.976;8.240;2022-08-19T10:06:15;99824.81;;;33.40;31.00
804;BME280;25687;49.976;8.240;2022-08-19T10:08:41;99822.69;;;33.59;30.43
804;BME280;25687;49.976;8.240;2022-08-19T10:11:06;99826.50;;;33.46;30.85
804;BME280;25687;49.976;8.240;2022-08-19T10:13:32;99813.31;;;33.22;31.49
804;BME280;25687;49.976;8.240;2022-08-19T10:16:09;99814.53;;;31.62;32.53
804;BME280;25687;49.976;8.240;2022-08-19T10:18:36;99807.19;;;31.64;32.82
804;BME280;25687;49.976;8.240;2022-08-19T10:21:08;99809.09;;;33.26;31.00
804;BME280;25687;49.976;8.240;2022-08-19T10:23:35;99803.59;;;32.99;30.90
804;BME280;25687;49.976;8.240;2022-08-19T10:26:03;99794.34;;;33.87;29.50
804;BME280;25687;49.976;8.240;2022-08-19T10:28:30;99789.53;;;34.50;27.93
804;BME280;25687;49.976;8.240;2022-08-19T10:30:55;99788.72;;;33.03;30.07
804;BME280;25687;49.976;8.240;2022-08-19T10:33:20;99788.59;;;33.10;29.83
804;BME280;25687;49.976;8.240;2022-08-19T10:35:46;99800.53;;;33.07;29.72
804;BME280;25687;49.976;8.240;2022-08-19T10:38:11;99793.44;;;32.55;31.13
804;BME280;25687;49.976;8.240;2022-08-19T10:40:37;99791.50;;;32.39;31.14
804;BME280;25687;49.976;8.240;2022-08-19T10:43:02;99795.25;;;31.90;30.91
804;BME280;25687;49.976;8.240;2022-08-19T10:45:27;99793.44;;;31.13;31.43
804;BME280;25687;49.976;8.240;2022-08-19T10:47:53;99797.50;;;29.85;34.59
804;BME280;25687;49.976;8.240;2022-08-19T10:50:19;99796.91;;;29.83;34.74
804;BME280;25687;49.976;8.240;2022-08-19T10:53:05;99798.19;;;29.55;35.88
804;BME280;25687;49.976;8.240;2022-08-19T10:55:31;99790.84;;;29.25;36.01
804;BME280;25687;49.976;8.240;2022-08-19T10:58:17;99795.38;;;29.18;35.17
804;BME280;25687;49.976;8.240;2022-08-19T11:00:55;99798.97;;;29.30;35.44
804;BME280;25687;49.976;8.240;2022-08-19T11:03:22;99794.34;;;29.19;35.83
804;BME280;25687;49.976;8.240;2022-08-19T11:05:58;99782.25;;;28.98;35.54
804;BME280;25687;49.976;8.240;2022-08-19T11:08:23;99777.28;;;29.15;35.12
804;BME280;25687;49.976;8.240;2022-08-19T11:10:51;99778.31;;;28.69;36.16
804;BME280;25687;49.976;8.240;2022-08-19T11:13:18;99778.97;;;28.57;36.12
804;BME280;25687;49.976;8.240;2022-08-19T11:15:44;99780.81;;;28.50;37.39
804;BME280;25687;49.976;8.240;2022-08-19T11:18:12;99770.84;;;28.45;37.08
804;BME280;25687;49.976;8.240;2022-08-19T11:20:38;99767.94;;;27.75;38.12
804;BME280;25687;49.976;8.240;2022-08-19T11:23:03;99757.38;;;27.88;38.52
804;BME280;25687;49.976;8.240;2022-08-19T11:25:29;99759.63;;;27.78;37.56
804;BME280;25687;49.976;8.240;2022-08-19T11:27:54;99747.38;;;27.97;37.69
804;BME280;25687;49.976;8.240;2022-08-19T11:30:20;99744.34;;;28.07;37.33
804;BME280;25687;49.976;8.240;2022-08-19T11:32:45;99751.38;;;28.33;36.55
804;BME280;25687;49.976;8.240;2022-08-19T11:35:11;99749.25;;;28.62;35.80
804;BME280;25687;49.976;8.240;2022-08-19T11:37:36;99747.66;;;28.93;35.54
804;BME280;25687;49.976;8.240;2022-08-19T11:40:04;99749.72;;;28.91;34.39
804;BME280;25687;49.976;8.240;2022-08-19T11:42:30;99742.97;;;28.95;34.71
804;BME280;25687;49.976;8.240;2022-08-19T11:45:14;99745.88;;;28.87;34.86
804;BME280;25687;49.976;8.240;2022-08-19T11:47:39;99735.97;;;28.75;35.27
804;BME280;25687;49.976;8.240;2022-08-19T11:50:05;99729.25;;;28.66;35.19
804;BME280;25687;49.976;8.240;2022-08-19T11:52:30;99721.69;;;28.31;36.31
804;BME280;25687;49.976;8.240;2022-08-19T11:54:56;99717.00;;;28.33;36.67
804;BME280;25687;49.976;8.240;2022-08-19T11:57:21;99712.53;;;28.27;36.87
804;BME280;25687;49.976;8.240;2022-08-19T11:59:51;99714.44;;;28.20;36.73
804;BME280;25687;49.976;8.240;2022-08-19T12:02:17;99709.53;;;28.16;37.00
804;BME280;25687;49.976;8.240;2022-08-19T12:04:44;99713.97;;;28.29;36.53
804;BME280;25687;49.976;8.240;2022-08-19T12:07:09;99715.91;;;28.47;36.11
804;BME280;25687;49.976;8.240;2022-08-19T12:09:34;99708.41;;;28.44;35.88
804;BME280;25687;49.976;8.240;2022-08-19T12:12:00;99714.06;;;28.55;35.86
804;BME280;25687;49.976;8.240;2022-08-19T12:14:27;99705.81;;;28.76;36.41
804;BME280;25687;49.976;8.240;2022-08-19T12:16:55;99709.63;;;29.12;35.10
804;BME280;25687;49.976;8.240;2022-08-19T12:19:20;99712.56;;;29.04;35.19
804;BME280;25687;49.976;8.240;2022-08-19T12:21:45;99704.94;;;29.14;35.02
804;BME280;25687;49.976;8.240;2022-08-19T12:24:11;99711.09;;;29.40;34.54
804;BME280;25687;49.976;8.240;2022-08-19T12:26:36;99714.53;;;29.66;33.87
804;BME280;25687;49.976;8.240;2022-08-19T12:29:02;99709.94;;;29.29;33.87
804;BME280;25687;49.976;8.240;2022-08-19T12:31:28;99722.25;;;28.85;34.67
804;BME280;25687;49.976;8.240;2022-08-19T12:33:54;99719.81;;;28.83;34.80
804;BME280;25687;49.976;8.240;2022-08-19T12:36:20;99711.47;;;29.12;34.37
804;BME280;25687;49.976;8.240;2022-08-19T12:38:47;99708.34;;;29.47;34.26
804;BME280;25687;49.976;8.240;2022-08-19T12:41:14;99720.19;;;29.19;33.80
804;BME280;25687;49.976;8.240;2022-08-19T12:43:40;99713.13;;;28.81;34.49
804;BME280;25687;49.976;8.240;2022-08-19T12:46:07;99713.44;;;28.98;33.99
804;BME280;25687;49.976;8.240;2022-08-19T12:48:33;99709.41;;;28.89;34.59
804;BME280;25687;49.976;8.240;2022-08-19T12:50:59;99702.59;;;28.74;34.62
804;BME280;25687;49.976;8.240;2022-08-19T12:53:24;99703.50;;;28.48;34.10
804;BME280;25687;49.976;8.240;2022-08-19T12:55:57;99690.25;;;28.09;35.37
804;BME280;25687;49.976;8.240;2022-08-19T12:58:22;99691.34;;;28.40;34.29
804;BME280;25687;49.976;8.240;2022-08-19T13:00:48;99702.47;;;28.56;34.01
804;BME280;25687;49.976;8.240;2022-08-19T13:03:14;99697.47;;;28.79;33.19
804;BME280;25687;49.976;8.240;2022-08-19T13:05:40;99700.50;;;29.08;32.45
804;BME280;25687;49.976;8.240;2022-08-19T13:08:05;99693.72;;;29.44;31.63
804;BME280;25687;49.976;8.240;2022-08-19T13:10:33;99702.59;;;29.75;32.03
804;BME280;25687;49.976;8.240;2022-08-19T13:13:00;99697.22;;;29.82;31.55
804;BME280;25687;49.976;8.240;2022-08-19T13:15:27;99700.50;;;29.40;32.63
804;BME280;25687;49.976;8.240;2022-08-19T13:17:57;99709.53;;;29.26;33.35
804;BME280;25687;49.976;8.240;2022-08-19T13:20:23;99709.22;;;28.83;34.01
804;BME280;25687;49.976;8.240;2022-08-19T13:22:49;99709.28;;;28.77;34.54
804;BME280;25687;49.976;8.240;2022-08-19T13:25:15;99732.66;;;28.87;33.24
804;BME280;25687;49.976;8.240;2022-08-19T13:27:43;99723.38;;;28.71;32.64
804;BME280;25687;49.976;8.240;2022-08-19T13:30:10;99728.25;;;28.67;32.64
804;BME280;25687;49.976;8.240;2022-08-19T13:32:55;99728.06;;;28.69;32.95
804;BME280;25687;49.976;8.240;2022-08-19T13:35:41;99725.44;;;28.55;33.35